Academy, New Jersey
Current Conditions -  °F | °C
As of 10:51 PM on Thursday 27 Nov 2014 (Local Time) from KEWR Reporting Station
Few Clouds Few Clouds  
Wind Chill: -4°   Ceiling: Unl
Heat Index:   Visibility: 10mi
Dew Point: -4°   Wind: 10mph
Humidity: 70%   Direction: 320°NW
Pressure: 30.07"   Gusts: NA
Location:  40.7334°N, 74.1735°W
Report Text: KEWR 280351Z 32009KT 10SM FEW045 01/M04 A3007 RMK AO2 SLP181 T00061044 $
Loading
Personal Weather Stations






























Interactive Weather Map New forecast layout! Learn more

10-Day Weather Forecast

Advertisements
Track Severe Weather on mobile